createdAt,value
2023-08-04T00:01:40.612Z,12.73
2023-08-04T00:04:08.807Z,11.77
2023-08-04T00:06:35.483Z,14.38
2023-08-04T00:09:02.233Z,11.02
2023-08-04T00:11:28.976Z,13.35
2023-08-04T00:13:55.566Z,11.63
2023-08-04T00:16:22.231Z,21.40
2023-08-04T00:18:48.922Z,10.73
2023-08-04T00:21:16.997Z,8.05
2023-08-04T00:23:43.640Z,14.02
2023-08-04T00:26:10.324Z,14.73
2023-08-04T00:28:36.968Z,10.38
2023-08-04T00:31:03.664Z,14.05
2023-08-04T00:33:30.309Z,15.90
2023-08-04T00:35:56.972Z,9.13
2023-08-04T00:38:25.170Z,11.20
2023-08-04T00:40:51.869Z,12.50
2023-08-04T00:43:18.520Z,12.63
2023-08-04T00:45:45.331Z,13.52
2023-08-04T00:48:12.695Z,22.92
2023-08-04T00:50:40.883Z,15.38
2023-08-04T00:53:07.890Z,13.40
2023-08-04T00:55:36.399Z,12.38
2023-08-04T00:58:03.092Z,12.40
2023-08-04T01:00:29.790Z,11.18
2023-08-04T01:02:56.675Z,15.18
2023-08-04T01:05:26.379Z,14.25
2023-08-04T01:07:58.731Z,12.63
2023-08-04T01:10:30.561Z,18.25
2023-08-04T01:13:10.125Z,15.18
2023-08-04T01:15:37.487Z,15.30
2023-08-04T01:18:04.310Z,14.05
2023-08-04T01:20:31.172Z,15.40
2023-08-04T01:22:59.362Z,11.57
2023-08-04T01:25:35.202Z,12.90
2023-08-04T01:28:04.810Z,16.42
2023-08-04T01:30:33.769Z,11.80
2023-08-04T01:33:00.804Z,14.48
2023-08-04T01:35:27.830Z,13.32
2023-08-04T01:37:54.545Z,13.65
2023-08-04T01:40:22.902Z,12.90
2023-08-04T01:42:49.594Z,15.82
2023-08-04T01:45:16.286Z,17.85
2023-08-04T01:47:46.121Z,20.13
2023-08-04T01:50:12.854Z,12.25
2023-08-04T01:52:39.578Z,15.88
2023-08-04T01:55:07.353Z,14.32
2023-08-04T01:57:35.550Z,15.63
2023-08-04T02:00:02.564Z,18.08
2023-08-04T02:02:38.576Z,12.23
2023-08-04T02:05:06.629Z,14.52
2023-08-04T02:07:33.621Z,16.27
2023-08-04T02:10:00.311Z,15.75
2023-08-04T02:12:28.408Z,15.07
2023-08-04T02:14:57.311Z,18.73
2023-08-04T02:17:24.104Z,14.07
2023-08-04T02:19:50.808Z,15.82
2023-08-04T02:22:17.479Z,17.70
2023-08-04T02:24:44.211Z,15.88
2023-08-04T02:27:10.918Z,20.40
2023-08-04T02:29:40.964Z,17.13
2023-08-04T02:32:09.583Z,21.55
2023-08-04T02:34:36.288Z,16.35
2023-08-04T02:37:03.203Z,19.77
2023-08-04T02:39:29.951Z,17.40
2023-08-04T02:41:56.677Z,15.18
2023-08-04T02:44:23.374Z,16.75
2023-08-04T02:46:50.195Z,14.65
2023-08-04T02:49:18.421Z,16.83
2023-08-04T02:51:45.228Z,21.80
2023-08-04T02:54:12.291Z,20.75
2023-08-04T02:56:39.332Z,16.85
2023-08-04T02:59:06.011Z,25.02
2023-08-04T03:01:33.017Z,19.83
2023-08-04T03:03:59.734Z,20.45
2023-08-04T03:06:27.894Z,17.33
2023-08-04T03:08:54.596Z,16.67
2023-08-04T03:11:21.421Z,21.15
2023-08-04T03:13:48.114Z,13.00
2023-08-04T03:16:14.835Z,17.52
2023-08-04T03:18:41.543Z,15.05
2023-08-04T03:21:08.892Z,14.85
2023-08-04T03:23:36.958Z,14.65
2023-08-04T03:26:03.590Z,15.35
2023-08-04T03:28:30.305Z,15.73
2023-08-04T03:30:57.000Z,17.02
2023-08-04T03:33:23.736Z,16.40
2023-08-04T03:35:50.677Z,16.42
2023-08-04T03:38:18.052Z,14.90
2023-08-04T03:40:46.266Z,17.88
2023-08-04T03:43:12.961Z,16.23
2023-08-04T03:45:39.693Z,20.90
2023-08-04T03:48:06.561Z,14.73
2023-08-04T03:50:33.427Z,20.35
2023-08-04T03:53:00.431Z,19.40
2023-08-04T03:55:27.765Z,18.55
2023-08-04T03:57:55.847Z,16.58
2023-08-04T04:00:22.612Z,18.25
2023-08-04T04:02:49.408Z,17.73
2023-08-04T04:05:16.096Z,15.73
2023-08-04T04:07:42.802Z,17.17
2023-08-04T04:10:09.789Z,18.17
2023-08-04T04:12:36.617Z,15.65
2023-08-04T04:15:06.006Z,18.45
2023-08-04T04:17:33.059Z,15.18
2023-08-04T04:19:59.839Z,23.70
2023-08-04T04:22:26.589Z,15.23
2023-08-04T04:24:53.429Z,17.90
2023-08-04T04:27:20.237Z,21.65
2023-08-04T04:29:46.881Z,13.02
2023-08-04T04:32:15.073Z,15.98
2023-08-04T04:34:42.135Z,14.98
2023-08-04T04:37:08.839Z,19.17
2023-08-04T04:39:35.476Z,16.13
2023-08-04T04:42:03.450Z,15.55
2023-08-04T04:44:30.138Z,14.57
2023-08-04T04:46:57.001Z,16.90
2023-08-04T04:49:25.033Z,17.25
2023-08-04T04:51:51.723Z,12.70
2023-08-04T04:54:18.343Z,17.88
2023-08-04T04:56:46.731Z,17.70
2023-08-04T04:59:13.445Z,15.30
2023-08-04T05:01:40.151Z,18.35
2023-08-04T05:04:06.953Z,13.45
2023-08-04T05:06:35.179Z,14.68
2023-08-04T05:09:02.101Z,13.32
2023-08-04T05:11:28.750Z,15.88
2023-08-04T05:13:55.566Z,14.30
2023-08-04T05:16:22.282Z,12.63
2023-08-04T05:18:48.991Z,13.43
2023-08-04T05:21:15.664Z,14.75
2023-08-04T05:23:43.665Z,14.55
2023-08-04T05:26:10.355Z,13.80
2023-08-04T05:28:36.969Z,15.50
2023-08-04T05:31:05.228Z,14.25
2023-08-04T05:33:33.294Z,17.58
2023-08-04T05:36:00.801Z,15.75
2023-08-04T05:38:27.519Z,12.48
2023-08-04T05:40:55.714Z,13.75
2023-08-04T05:43:22.364Z,12.43
2023-08-04T05:45:49.467Z,10.80
2023-08-04T05:48:16.564Z,12.75
2023-08-04T05:50:43.513Z,17.42
2023-08-04T05:53:10.440Z,12.63
2023-08-04T05:55:37.176Z,16.55
2023-08-04T05:58:05.713Z,13.43
2023-08-04T06:00:33.341Z,13.65
2023-08-04T06:03:00.072Z,15.32
2023-08-04T06:05:27.009Z,16.35
2023-08-04T06:07:53.700Z,22.17
2023-08-04T06:10:20.510Z,14.27
2023-08-04T06:12:48.092Z,12.68
2023-08-04T06:15:16.851Z,16.60
2023-08-04T06:17:44.898Z,14.57
2023-08-04T06:20:12.040Z,20.08
2023-08-04T06:22:39.048Z,14.85
2023-08-04T06:25:06.817Z,17.45
2023-08-04T06:27:33.898Z,20.45
2023-08-04T06:30:00.882Z,15.68
2023-08-04T06:32:29.379Z,14.70
2023-08-04T06:34:56.320Z,15.30
2023-08-04T06:37:23.202Z,11.60
2023-08-04T06:39:49.947Z,17.02
2023-08-04T06:42:16.800Z,13.05
2023-08-04T06:44:43.557Z,16.15
2023-08-04T06:47:10.305Z,15.57
2023-08-04T06:49:38.374Z,16.73
2023-08-04T06:52:06.212Z,14.63
2023-08-04T06:54:32.828Z,16.63
2023-08-04T06:56:59.469Z,17.52
2023-08-04T06:59:26.501Z,15.48
2023-08-04T07:01:53.335Z,15.02
2023-08-04T07:04:20.108Z,15.02
2023-08-04T07:06:48.851Z,13.20
2023-08-04T07:09:15.731Z,16.48
2023-08-04T07:11:42.391Z,12.50
2023-08-04T07:14:09.136Z,13.68
2023-08-04T07:16:35.843Z,14.18
2023-08-04T07:19:02.738Z,14.18
2023-08-04T07:21:29.359Z,10.82
2023-08-04T07:23:57.403Z,17.92
2023-08-04T07:26:24.025Z,17.25
2023-08-04T07:28:50.801Z,15.63
2023-08-04T07:31:17.595Z,18.45
2023-08-04T07:33:44.336Z,12.40
2023-08-04T07:36:11.074Z,13.60
2023-08-04T07:38:37.829Z,12.13
2023-08-04T07:41:05.946Z,15.13
2023-08-04T07:43:32.635Z,14.77
2023-08-04T07:45:59.641Z,16.67
2023-08-04T07:48:26.262Z,11.38
2023-08-04T07:50:53.015Z,13.13
2023-08-04T07:53:20.160Z,11.23
2023-08-04T07:55:55.717Z,12.30
2023-08-04T07:58:23.868Z,10.27
2023-08-04T08:00:50.813Z,9.98
2023-08-04T08:03:17.893Z,10.27
2023-08-04T08:05:44.717Z,8.80
2023-08-04T08:08:11.575Z,9.18
2023-08-04T08:10:38.255Z,7.43
2023-08-04T08:13:04.997Z,5.85
2023-08-04T08:15:33.137Z,5.82
2023-08-04T08:18:00.345Z,7.40
2023-08-04T08:20:27.114Z,4.90
2023-08-04T08:22:54.229Z,5.82
2023-08-04T08:25:21.002Z,4.45
2023-08-04T08:27:47.687Z,5.72
2023-08-04T08:30:14.408Z,5.75
2023-08-04T08:32:42.507Z,6.18
2023-08-04T08:35:09.774Z,4.05
2023-08-04T08:37:36.543Z,4.43
2023-08-04T08:40:03.720Z,4.40
2023-08-04T08:42:30.530Z,3.90
2023-08-04T08:44:57.476Z,6.95
2023-08-04T08:47:25.120Z,7.00
2023-08-04T08:49:59.767Z,8.02
2023-08-04T08:52:31.438Z,7.80
2023-08-04T08:54:59.141Z,5.80
2023-08-04T08:57:27.492Z,6.82
2023-08-04T08:59:57.804Z,7.93
2023-08-04T09:02:25.250Z,9.13
2023-08-04T09:04:53.569Z,6.32
2023-08-04T09:07:22.240Z,6.13
2023-08-04T09:09:48.909Z,7.35
2023-08-04T09:12:16.350Z,7.93
2023-08-04T09:14:50.990Z,5.05
2023-08-04T09:17:31.223Z,3.88
2023-08-04T09:20:00.236Z,5.72
2023-08-04T09:22:27.462Z,6.40
2023-08-04T09:24:59.702Z,8.82
2023-08-04T09:27:28.328Z,5.00
2023-08-04T09:29:58.481Z,4.80
2023-08-04T09:32:25.387Z,3.75
2023-08-04T09:35:01.080Z,4.93
2023-08-04T09:37:27.952Z,7.60
2023-08-04T09:39:54.812Z,5.57
2023-08-04T09:42:21.479Z,6.55
2023-08-04T09:44:50.787Z,5.60
2023-08-04T09:47:17.472Z,4.22
2023-08-04T09:49:44.098Z,4.35
2023-08-04T09:52:12.195Z,7.13
2023-08-04T09:54:38.910Z,5.97
2023-08-04T09:57:06.386Z,7.28
2023-08-04T09:59:33.370Z,5.07
2023-08-04T10:02:00.297Z,5.82
2023-08-04T10:04:27.673Z,4.07
2023-08-04T10:06:55.167Z,4.90
2023-08-04T10:09:24.940Z,4.20
2023-08-04T10:11:51.719Z,5.25
2023-08-04T10:14:18.591Z,4.95
2023-08-04T10:16:46.370Z,5.35
2023-08-04T10:19:13.231Z,5.65
2023-08-04T10:21:41.222Z,5.40
2023-08-04T10:24:10.199Z,4.47
2023-08-04T10:26:45.858Z,5.43
2023-08-04T10:29:12.944Z,3.47
2023-08-04T10:31:49.603Z,3.28
2023-08-04T10:34:27.456Z,3.88
2023-08-04T10:37:05.723Z,3.67
2023-08-04T10:39:34.971Z,5.07
2023-08-04T10:42:06.181Z,5.82
2023-08-04T10:44:49.889Z,3.92
2023-08-04T10:47:29.050Z,3.45
2023-08-04T10:49:56.931Z,3.47
2023-08-04T10:52:24.184Z,3.88
2023-08-04T10:54:52.150Z,2.80
2023-08-04T10:57:20.784Z,4.53
2023-08-04T10:59:47.398Z,4.28
2023-08-04T11:02:17.799Z,3.63
2023-08-04T11:04:44.732Z,3.72
2023-08-04T11:07:11.684Z,3.15
2023-08-04T11:09:38.367Z,3.22
2023-08-04T11:12:07.594Z,3.58
2023-08-04T11:14:36.405Z,3.55
2023-08-04T11:17:03.774Z,5.30
2023-08-04T11:19:30.957Z,4.72
2023-08-04T11:21:57.608Z,4.93
2023-08-04T11:24:24.599Z,7.45
2023-08-04T11:26:52.241Z,21.75
2023-08-04T11:29:19.186Z,3.38
2023-08-04T11:31:47.558Z,1.58
2023-08-04T11:34:14.660Z,1.95
2023-08-04T11:36:41.812Z,2.58
2023-08-04T11:39:08.672Z,2.65
2023-08-04T11:41:36.216Z,1.92
2023-08-04T11:44:03.272Z,1.40
2023-08-04T11:46:30.884Z,2.67
2023-08-04T11:48:58.939Z,3.28
2023-08-04T11:51:25.721Z,1.55
2023-08-04T11:53:52.489Z,2.45
2023-08-04T11:58:53.841Z,2.88
2023-08-04T12:01:26.998Z,1.90
2023-08-04T12:03:53.982Z,3.03
2023-08-04T12:06:23.405Z,3.17
2023-08-04T12:08:52.160Z,3.45
2023-08-04T12:11:19.476Z,2.95
2023-08-04T12:13:46.180Z,8.38
2023-08-04T12:16:13.436Z,3.08
2023-08-04T12:18:40.408Z,2.47
2023-08-04T12:21:07.345Z,3.65
2023-08-04T12:23:35.448Z,5.40
2023-08-04T12:26:02.300Z,2.80
2023-08-04T12:28:29.207Z,1.55
2023-08-04T12:33:25.492Z,1.48
2023-08-04T12:35:52.123Z,2.42
2023-08-04T12:38:19.376Z,3.17
2023-08-04T12:40:48.141Z,3.53
2023-08-04T12:43:14.842Z,1.95
2023-08-04T12:45:41.512Z,4.80
2023-08-04T12:48:08.188Z,1.65
2023-08-04T12:50:34.867Z,3.63
2023-08-04T12:53:01.578Z,1.52
2023-08-04T12:55:28.243Z,2.28
2023-08-04T12:57:56.174Z,3.15
2023-08-04T13:00:22.976Z,2.47
2023-08-04T13:02:49.724Z,2.72
2023-08-04T13:05:16.753Z,2.92
2023-08-04T13:07:43.569Z,1.75
2023-08-04T13:10:10.502Z,4.05
2023-08-04T13:12:37.115Z,2.88
2023-08-04T13:15:06.549Z,5.28
2023-08-04T13:17:33.377Z,3.63
2023-08-04T13:20:00.071Z,5.10
2023-08-04T13:22:27.433Z,4.28
2023-08-04T13:24:54.213Z,3.97
2023-08-04T13:27:20.795Z,4.97
2023-08-04T13:29:47.733Z,3.47
2023-08-04T13:32:15.818Z,2.35
2023-08-04T13:34:42.617Z,2.83
2023-08-04T13:37:09.270Z,2.42
2023-08-04T13:39:35.948Z,1.50
2023-08-04T13:42:02.721Z,1.63
2023-08-04T13:44:29.438Z,2.70
2023-08-04T13:46:58.806Z,2.60
2023-08-04T13:49:26.991Z,4.70
2023-08-04T13:51:53.696Z,2.40
2023-08-04T13:54:20.369Z,3.85
2023-08-04T13:56:47.097Z,4.43
2023-08-04T13:59:14.829Z,3.85
2023-08-04T14:01:41.616Z,5.18
2023-08-04T14:04:08.446Z,3.88
2023-08-04T14:06:36.553Z,3.15
2023-08-04T14:09:03.553Z,4.07
2023-08-04T14:11:30.232Z,3.85
2023-08-04T14:13:56.972Z,3.30
2023-08-04T14:16:23.719Z,5.05
2023-08-04T14:18:50.374Z,4.18
2023-08-04T14:21:17.246Z,4.40
2023-08-04T14:23:45.250Z,2.60
2023-08-04T14:26:11.929Z,3.05
2023-08-04T14:28:38.759Z,2.75
2023-08-04T14:31:05.496Z,4.72
2023-08-04T14:33:32.167Z,4.38
2023-08-04T14:35:58.849Z,4.65
2023-08-04T14:38:25.613Z,2.75
2023-08-04T14:40:53.678Z,1.48
2023-08-04T14:43:20.440Z,2.05
2023-08-04T14:45:47.327Z,3.97
2023-08-04T14:48:14.018Z,1.85
2023-08-04T14:50:41.203Z,1.35
2023-08-04T14:53:08.064Z,2.55
2023-08-04T14:55:35.863Z,2.13
2023-08-04T14:58:04.122Z,2.25
2023-08-04T15:00:31.502Z,2.53
2023-08-04T15:02:58.266Z,0.63
2023-08-04T15:05:25.028Z,1.95
2023-08-04T15:07:51.806Z,2.28
2023-08-04T15:10:18.634Z,0.88
2023-08-04T15:12:45.370Z,2.85
2023-08-04T15:15:13.379Z,2.60
2023-08-04T15:17:40.100Z,3.83
2023-08-04T15:20:08.130Z,2.97
2023-08-04T15:22:35.080Z,1.77
2023-08-04T15:25:01.711Z,4.55
2023-08-04T15:27:28.338Z,3.60
2023-08-04T15:29:55.024Z,2.88
2023-08-04T15:32:23.251Z,2.47
2023-08-04T15:34:49.983Z,5.78
2023-08-04T15:37:16.653Z,3.70
2023-08-04T15:39:43.292Z,1.58
2023-08-04T15:42:10.053Z,6.20
2023-08-04T15:44:36.790Z,2.65
2023-08-04T15:47:03.670Z,2.45
2023-08-04T15:49:31.875Z,3.30
2023-08-04T15:51:58.529Z,2.80
2023-08-04T15:54:25.155Z,1.42
2023-08-04T15:56:52.177Z,1.63
2023-08-04T15:59:18.949Z,6.53
2023-08-04T16:01:45.622Z,2.03
2023-08-04T16:04:12.394Z,4.10
2023-08-04T16:06:40.532Z,5.30
2023-08-04T16:09:07.229Z,4.80
2023-08-04T16:11:33.840Z,5.43
2023-08-04T16:14:00.540Z,3.05
2023-08-04T16:16:27.267Z,4.43
2023-08-04T16:18:54.020Z,3.75
2023-08-04T16:21:20.686Z,2.90
2023-08-04T16:23:48.687Z,5.03
2023-08-04T16:26:15.490Z,3.28
2023-08-04T16:28:42.130Z,2.72
2023-08-04T16:31:08.809Z,4.43
2023-08-04T16:33:35.518Z,4.15
2023-08-04T16:36:02.267Z,2.47
2023-08-04T16:38:28.959Z,3.58
2023-08-04T16:40:57.778Z,2.80
2023-08-04T16:43:24.454Z,2.80
2023-08-04T16:45:51.255Z,2.83
2023-08-04T16:48:17.949Z,3.83
2023-08-04T16:50:44.665Z,4.85
2023-08-04T16:53:11.390Z,3.85
2023-08-04T16:55:38.061Z,5.22
2023-08-04T16:58:06.183Z,2.95
2023-08-04T17:00:32.822Z,3.03
2023-08-04T17:02:59.496Z,2.42
2023-08-04T17:05:30.642Z,2.13
2023-08-04T17:07:57.325Z,2.38
2023-08-04T17:10:23.947Z,4.03
2023-08-04T17:12:50.571Z,3.10
2023-08-04T17:15:33.906Z,2.58
2023-08-04T17:18:02.963Z,3.70
2023-08-04T17:20:29.747Z,6.95
2023-08-04T17:22:56.505Z,3.63
2023-08-04T17:25:23.378Z,4.55
2023-08-04T17:27:50.124Z,4.47
2023-08-04T17:30:18.332Z,4.47
2023-08-04T17:32:45.081Z,6.68
2023-08-04T17:35:11.882Z,2.67
2023-08-04T17:37:38.531Z,3.92
2023-08-04T17:40:06.334Z,4.85
2023-08-04T17:42:33.237Z,3.47
2023-08-04T17:44:59.994Z,4.30
2023-08-04T17:47:28.247Z,2.75
2023-08-04T17:49:54.894Z,5.10
2023-08-04T17:52:21.551Z,5.65
2023-08-04T17:54:48.243Z,2.85
2023-08-04T17:57:14.960Z,2.08
2023-08-04T17:59:42.152Z,4.82
2023-08-04T18:02:08.904Z,7.43
2023-08-04T18:04:36.911Z,2.38
2023-08-04T18:07:03.827Z,2.33
2023-08-04T18:09:30.537Z,2.17
2023-08-04T18:11:57.157Z,3.90
2023-08-04T18:14:23.758Z,5.57
2023-08-04T18:16:50.692Z,4.18
2023-08-04T18:19:17.659Z,3.78
2023-08-04T18:21:45.681Z,2.15
2023-08-04T18:24:12.353Z,7.43
2023-08-04T18:26:39.252Z,5.85
2023-08-04T18:29:06.101Z,2.85
2023-08-04T18:31:32.708Z,1.42
2023-08-04T18:33:59.314Z,9.30
2023-08-04T18:36:26.021Z,6.63
2023-08-04T18:38:54.148Z,7.28
2023-08-04T18:41:20.853Z,2.65
2023-08-04T18:43:47.543Z,3.63
2023-08-04T18:46:14.267Z,6.43
2023-08-04T18:48:40.927Z,4.30
2023-08-04T18:51:07.598Z,5.25
2023-08-04T18:53:34.254Z,5.05
2023-08-04T18:56:02.453Z,2.88
2023-08-04T18:58:29.076Z,2.97
2023-08-04T19:00:55.792Z,1.70
2023-08-04T19:03:22.568Z,2.78
2023-08-04T19:05:49.454Z,2.75
2023-08-04T19:08:16.272Z,1.48
2023-08-04T19:10:42.956Z,2.85
2023-08-04T19:13:11.166Z,7.28
2023-08-04T19:15:37.865Z,4.00
2023-08-04T19:18:04.529Z,6.72
2023-08-04T19:20:31.240Z,3.70
2023-08-04T19:22:57.853Z,1.67
2023-08-04T19:25:24.628Z,8.57
2023-08-04T19:27:51.246Z,4.93
2023-08-04T19:30:19.468Z,2.80
2023-08-04T19:32:46.201Z,3.50
2023-08-04T19:35:13.072Z,2.80
2023-08-04T19:37:39.805Z,3.35
2023-08-04T19:40:07.518Z,4.50
2023-08-04T19:42:34.201Z,8.43
2023-08-04T19:45:00.838Z,4.43
2023-08-04T19:47:28.942Z,4.70
2023-08-04T19:49:55.703Z,7.50
2023-08-04T19:52:22.373Z,5.70
2023-08-04T19:54:49.084Z,3.13
2023-08-04T19:57:16.266Z,8.38
2023-08-04T19:59:43.086Z,9.82
2023-08-04T20:02:09.756Z,3.40
2023-08-04T20:04:40.536Z,6.60
2023-08-04T20:07:07.949Z,5.43
2023-08-04T20:09:34.588Z,8.38
2023-08-04T20:12:01.309Z,4.03
2023-08-04T20:14:28.013Z,4.47
2023-08-04T20:16:54.651Z,3.38
2023-08-04T20:19:21.394Z,5.95
2023-08-04T20:21:49.370Z,3.20
2023-08-04T20:24:16.288Z,6.40
2023-08-04T20:26:43.145Z,5.07
2023-08-04T20:29:09.781Z,6.82
2023-08-04T20:31:36.405Z,3.63
2023-08-04T20:34:03.067Z,2.42
2023-08-04T20:36:29.636Z,2.80
2023-08-04T20:38:57.659Z,9.18
2023-08-04T20:41:24.347Z,5.63
2023-08-04T20:43:51.022Z,3.15
2023-08-04T20:46:18.314Z,6.82
2023-08-04T20:48:45.073Z,3.58
2023-08-04T20:51:11.816Z,7.22
2023-08-04T20:53:39.005Z,6.70
2023-08-04T20:56:08.017Z,4.82
2023-08-04T20:58:34.898Z,3.22
2023-08-04T21:01:02.663Z,5.03
2023-08-04T21:03:29.485Z,8.05
2023-08-04T21:05:56.203Z,4.57
2023-08-04T21:08:22.845Z,3.35
2023-08-04T21:10:52.182Z,3.60
2023-08-04T21:13:20.946Z,4.28
2023-08-04T21:15:48.746Z,3.42
2023-08-04T21:18:15.496Z,3.80
2023-08-04T21:20:42.487Z,2.67
2023-08-04T21:23:09.196Z,6.03
2023-08-04T21:25:35.822Z,5.60
2023-08-04T21:28:02.647Z,8.40
2023-08-04T21:30:30.678Z,2.95
2023-08-04T21:32:57.295Z,5.50
2023-08-04T21:35:24.044Z,3.05
2023-08-04T21:37:50.662Z,3.55
2023-08-04T21:40:17.500Z,4.13
2023-08-04T21:42:44.154Z,3.42
2023-08-04T21:45:11.070Z,4.57
2023-08-04T21:47:39.319Z,5.97
2023-08-04T21:50:07.325Z,5.35
2023-08-04T21:52:33.936Z,2.78
2023-08-04T21:55:00.555Z,4.45
2023-08-04T21:57:27.478Z,6.70
2023-08-04T21:59:54.263Z,7.88
2023-08-04T22:02:20.937Z,3.58
2023-08-04T22:04:48.961Z,5.47
2023-08-04T22:07:15.609Z,3.83
2023-08-04T22:09:42.346Z,5.30
2023-08-04T22:12:09.477Z,3.38
2023-08-04T22:14:36.126Z,3.03
2023-08-04T22:17:02.901Z,4.75
2023-08-04T22:19:30.423Z,3.55
2023-08-04T22:21:58.512Z,5.65
2023-08-04T22:24:25.148Z,3.38
2023-08-04T22:26:52.003Z,7.70
2023-08-04T22:29:18.879Z,6.40
2023-08-04T22:31:45.469Z,4.55
2023-08-04T22:34:12.132Z,2.90
2023-08-04T22:36:38.772Z,4.40
2023-08-04T22:39:06.805Z,3.78
2023-08-04T22:41:33.536Z,2.90
2023-08-04T22:44:00.173Z,4.30
2023-08-04T22:46:26.865Z,3.60
2023-08-04T22:48:53.599Z,4.25
2023-08-04T22:51:20.240Z,6.05
2023-08-04T22:53:47.121Z,3.88
2023-08-04T22:56:15.189Z,5.00
2023-08-04T22:58:41.842Z,7.63
2023-08-04T23:01:08.543Z,8.55
2023-08-04T23:03:35.330Z,5.10
2023-08-04T23:06:02.020Z,8.02
2023-08-04T23:08:28.661Z,5.57
2023-08-04T23:10:56.550Z,5.93
2023-08-04T23:13:24.959Z,6.65
2023-08-04T23:15:51.704Z,6.40
2023-08-04T23:18:18.445Z,6.32
2023-08-04T23:20:48.210Z,4.80
2023-08-04T23:23:14.992Z,7.22
2023-08-04T23:25:43.011Z,7.72
2023-08-04T23:28:09.910Z,4.90
2023-08-04T23:30:44.445Z,11.10
2023-08-04T23:33:11.476Z,7.88
2023-08-04T23:35:38.766Z,3.95
2023-08-04T23:38:05.553Z,6.70
2023-08-04T23:40:32.445Z,8.48
2023-08-04T23:42:59.329Z,5.25
2023-08-04T23:45:25.923Z,5.03
2023-08-04T23:47:54.111Z,5.60
2023-08-04T23:50:20.855Z,3.67
2023-08-04T23:52:47.513Z,9.38
2023-08-04T23:55:14.298Z,7.07
2023-08-04T23:57:41.071Z,8.95
